Accueil
METAR-TAF:

METAR-TAF

Aéroports :

Base aérienne

Meppen, Allemagne

latitude: 52-43-24N, longitude: 007-19-35E, altitude: 21 m

Observation

Le bulletin a été fait il y a 57 minutes, à 13:20 UTC
Vent 10 kt de sud-ouest
Température 25°C
Humidité 36%
Pression 1024 hPa
Visibilité 10 km ou plus
Quelques nuages à une hauteur de 6000 ft
Nuages épars à une hauteur de 32000 ft

METAR: ETWM 221320Z 22010KT 9999 FEW060 SCT320 25/09 Q1024 BLU+

Heure: 16:17 (14:17 UTC)


TAF: absent

Observations et prévisions météorologiques de plus de 4000 aéroports (messages METAR et TAF).

Les stations disponibles sont représentées par des disques jaunes et rouges sur la carte.

Passer la souris dessus pour voir le nom de la station.

Cliquer dessus pour voir les observations et prévisions météorologiques.

Pour changer de carte: cliquez sur les boutons verts avec une croix noire pour zoomer, sur le bouton vert avec un tiret pour effectuer un zoom arrière, ou sur les flèches vertes pour les cartes adjacentes.


METAR-TAF: